createdAt,value
2023-05-25T00:01:00.431Z,53.70
2023-05-25T00:03:31.246Z,54.20
2023-05-25T00:06:01.349Z,54.20
2023-05-25T00:08:29.597Z,54.30
2023-05-25T00:10:58.805Z,54.30
2023-05-25T00:13:26.687Z,54.00
2023-05-25T00:15:54.688Z,54.30
2023-05-25T00:18:22.792Z,54.10
2023-05-25T00:20:53.993Z,54.20
2023-05-25T00:23:21.975Z,54.20
2023-05-25T00:25:49.851Z,54.60
2023-05-25T00:28:19.019Z,54.00
2023-05-25T00:30:46.903Z,54.60
2023-05-25T00:33:14.994Z,54.40
2023-05-25T00:35:44.624Z,54.20
2023-05-25T00:38:14.493Z,54.40
2023-05-25T00:40:42.570Z,54.30
2023-05-25T00:43:11.290Z,54.70
2023-05-25T00:45:41.008Z,54.90
2023-05-25T00:48:11.028Z,54.80
2023-05-25T00:50:40.600Z,55.10
2023-05-25T00:53:10.061Z,54.80
2023-05-25T00:55:40.418Z,54.50
2023-05-25T00:58:09.448Z,54.70
2023-05-25T01:00:41.911Z,54.70
2023-05-25T01:03:17.882Z,54.90
2023-05-25T01:05:48.760Z,54.90
2023-05-25T01:08:19.480Z,54.50
2023-05-25T01:10:50.001Z,55.20
2023-05-25T01:13:19.252Z,55.20
2023-05-25T01:15:49.047Z,55.40
2023-05-25T01:18:17.884Z,56.10
2023-05-25T01:20:57.142Z,55.50
2023-05-25T01:23:31.258Z,55.70
2023-05-25T01:26:02.676Z,55.50
2023-05-25T01:28:34.885Z,55.20
2023-05-25T01:31:03.979Z,55.90
2023-05-25T01:33:32.952Z,55.90
2023-05-25T01:36:03.931Z,56.30
2023-05-25T01:38:31.793Z,56.40
2023-05-25T01:40:59.595Z,56.40
2023-05-25T01:43:27.418Z,57.30
2023-05-25T01:46:02.165Z,57.10
2023-05-25T01:48:38.660Z,58.30
2023-05-25T01:51:14.152Z,58.00
2023-05-25T01:53:46.505Z,58.60
2023-05-25T01:56:15.468Z,58.90
2023-05-25T01:58:45.436Z,58.00
2023-05-25T02:01:15.868Z,59.20
2023-05-25T02:03:44.796Z,59.80
2023-05-25T02:06:14.076Z,60.80
2023-05-25T02:08:41.822Z,59.90
2023-05-25T02:11:10.344Z,59.90
2023-05-25T02:13:38.177Z,61.50
2023-05-25T02:16:06.519Z,61.80
2023-05-25T02:18:34.444Z,63.20
2023-05-25T02:21:02.228Z,64.40
2023-05-25T02:23:31.361Z,65.40
2023-05-25T02:25:59.110Z,65.90
2023-05-25T02:28:27.075Z,67.60
2023-05-25T02:30:54.915Z,68.60
2023-05-25T02:33:22.772Z,70.10
2023-05-25T02:35:50.614Z,72.00
2023-05-25T02:38:18.492Z,71.70
2023-05-25T02:40:47.860Z,71.40
2023-05-25T02:43:15.777Z,71.30
2023-05-25T02:45:43.710Z,70.80
2023-05-25T02:48:11.679Z,72.00
2023-05-25T02:50:39.412Z,72.40
2023-05-25T02:53:07.148Z,73.30
2023-05-25T02:55:34.949Z,73.60
2023-05-25T02:58:04.064Z,73.90
2023-05-25T03:00:31.849Z,74.50
2023-05-25T03:02:59.678Z,73.60
2023-05-25T03:05:27.899Z,74.10
2023-05-25T03:07:55.888Z,73.90
2023-05-25T03:10:23.672Z,73.90
2023-05-25T03:12:51.447Z,75.30
2023-05-25T03:15:20.561Z,76.30
2023-05-25T03:17:48.412Z,77.10
2023-05-25T03:20:16.799Z,76.90
2023-05-25T03:22:44.672Z,77.00
2023-05-25T03:25:13.037Z,77.60
2023-05-25T03:27:41.105Z,77.80
2023-05-25T03:30:10.098Z,77.90
2023-05-25T03:32:39.288Z,79.30
2023-05-25T03:35:07.883Z,79.70
2023-05-25T03:37:35.670Z,81.30
2023-05-25T03:40:04.662Z,80.70
2023-05-25T03:42:32.445Z,80.30
2023-05-25T03:45:00.235Z,81.00
2023-05-25T03:47:27.989Z,81.70
2023-05-25T03:49:57.193Z,81.60
2023-05-25T03:52:24.987Z,82.10
2023-05-25T03:54:52.812Z,83.20
2023-05-25T03:57:20.812Z,83.40
2023-05-25T03:59:48.670Z,84.00
2023-05-25T04:02:16.831Z,83.40
2023-05-25T04:04:45.215Z,83.00
2023-05-25T04:07:14.360Z,82.40
2023-05-25T04:09:42.158Z,81.90
2023-05-25T04:12:10.793Z,81.90
2023-05-25T04:14:38.549Z,82.30
2023-05-25T04:17:06.387Z,82.20
2023-05-25T04:19:34.252Z,83.80
2023-05-25T04:22:02.201Z,84.40
2023-05-25T04:24:32.574Z,84.70
2023-05-25T04:27:02.048Z,83.40
2023-05-25T04:29:30.151Z,81.70
2023-05-25T04:31:58.068Z,81.40
2023-05-25T04:34:26.170Z,80.70
2023-05-25T04:36:55.003Z,81.10
2023-05-25T04:39:22.897Z,81.00
2023-05-25T04:41:52.918Z,80.50
2023-05-25T04:44:20.948Z,80.00
2023-05-25T04:46:48.800Z,79.40
2023-05-25T04:49:19.031Z,78.80
2023-05-25T04:51:46.941Z,78.70
2023-05-25T04:54:14.804Z,77.80
2023-05-25T04:56:42.919Z,77.70
2023-05-25T04:59:12.480Z,77.50
2023-05-25T05:01:41.135Z,77.50
2023-05-25T05:04:09.553Z,77.50
2023-05-25T05:06:37.873Z,76.90
2023-05-25T05:09:05.858Z,76.60
2023-05-25T05:11:33.638Z,76.60
2023-05-25T05:14:01.422Z,76.20
2023-05-25T05:16:34.191Z,74.70
2023-05-25T05:19:02.601Z,75.10
2023-05-25T05:21:30.729Z,74.50
2023-05-25T05:23:58.514Z,73.10
2023-05-25T05:26:27.753Z,73.00
2023-05-25T05:28:55.607Z,72.20
2023-05-25T05:31:24.242Z,72.60
2023-05-25T05:33:53.468Z,71.10
2023-05-25T05:36:21.323Z,69.30
2023-05-25T05:38:49.074Z,68.30
2023-05-25T05:41:16.873Z,68.10
2023-05-25T05:43:46.288Z,67.60
2023-05-25T05:46:14.147Z,66.60
2023-05-25T05:48:42.267Z,65.50
2023-05-25T05:51:11.577Z,64.30
2023-05-25T05:53:39.572Z,63.60
2023-05-25T05:56:07.571Z,62.80
2023-05-25T05:58:35.504Z,61.10
2023-05-25T06:01:04.260Z,57.10
2023-05-25T06:03:32.826Z,52.50
2023-05-25T06:06:00.741Z,48.70
2023-05-25T06:08:29.861Z,45.80
2023-05-25T06:10:57.730Z,43.80
2023-05-25T06:13:25.585Z,41.90
2023-05-25T06:15:53.418Z,40.40
2023-05-25T06:18:21.210Z,39.80
2023-05-25T06:20:49.006Z,38.90
2023-05-25T06:23:18.665Z,37.10
2023-05-25T06:25:47.863Z,36.40
2023-05-25T06:28:16.023Z,35.80
2023-05-25T06:30:43.794Z,35.20
2023-05-25T06:33:11.689Z,34.50
2023-05-25T06:35:39.487Z,33.80
2023-05-25T06:38:07.281Z,34.00
2023-05-25T06:40:35.131Z,32.90
2023-05-25T06:43:04.383Z,33.10
2023-05-25T06:45:32.226Z,32.00
2023-05-25T06:48:00.078Z,32.20
2023-05-25T06:50:28.209Z,32.10
2023-05-25T06:52:56.139Z,32.10
2023-05-25T06:55:23.897Z,31.50
2023-05-25T06:57:51.680Z,31.00
2023-05-25T07:00:21.946Z,31.10
2023-05-25T07:02:49.789Z,31.00
2023-05-25T07:05:17.869Z,31.20
2023-05-25T07:07:45.762Z,30.60
2023-05-25T07:10:13.596Z,30.80
2023-05-25T07:12:41.391Z,30.10
2023-05-25T07:15:10.822Z,29.90
2023-05-25T07:17:40.634Z,29.60
2023-05-25T07:20:10.480Z,29.50
2023-05-25T07:22:38.476Z,29.80
2023-05-25T07:25:07.184Z,29.30
2023-05-25T07:27:35.988Z,29.60
2023-05-25T07:30:03.790Z,29.10
2023-05-25T07:32:31.624Z,28.70
2023-05-25T07:35:01.182Z,28.80
2023-05-25T07:37:29.001Z,28.30
2023-05-25T07:39:56.870Z,28.90
2023-05-25T07:42:24.649Z,29.30
2023-05-25T07:44:52.451Z,28.70
2023-05-25T07:47:20.244Z,28.90
2023-05-25T07:49:48.058Z,28.30
2023-05-25T07:52:18.839Z,27.90
2023-05-25T07:54:47.056Z,27.90
2023-05-25T07:57:14.836Z,27.80
2023-05-25T07:59:42.600Z,27.90
2023-05-25T08:02:12.499Z,28.40
2023-05-25T08:04:41.981Z,28.10
2023-05-25T08:07:12.097Z,28.00
2023-05-25T08:09:43.387Z,28.40
2023-05-25T08:12:34.271Z,28.30
2023-05-25T08:15:01.940Z,28.20
2023-05-25T08:17:31.413Z,27.80
2023-05-25T08:20:01.595Z,27.90
2023-05-25T08:22:31.054Z,28.40
2023-05-25T08:25:02.492Z,28.70
2023-05-25T08:27:35.195Z,28.50
2023-05-25T08:30:06.459Z,28.00
2023-05-25T08:32:36.324Z,28.20
2023-05-25T08:35:06.322Z,27.80
2023-05-25T08:37:36.316Z,27.40
2023-05-25T08:40:09.828Z,27.40
2023-05-25T08:42:39.710Z,27.90
2023-05-25T08:45:14.349Z,28.10
2023-05-25T08:47:56.138Z,28.60
2023-05-25T08:50:28.708Z,28.10
2023-05-25T08:53:00.001Z,27.90
2023-05-25T08:55:36.104Z,27.40
2023-05-25T08:58:11.151Z,27.00
2023-05-25T09:00:45.066Z,26.60
2023-05-25T09:03:17.822Z,27.50
2023-05-25T09:05:46.797Z,27.40
2023-05-25T09:08:15.030Z,27.70
2023-05-25T09:10:44.507Z,26.80
2023-05-25T09:13:22.199Z,26.60
2023-05-25T09:15:52.041Z,27.20
2023-05-25T09:18:20.149Z,27.60
2023-05-25T09:20:48.230Z,27.70
2023-05-25T09:23:16.439Z,27.50
2023-05-25T09:25:47.078Z,27.90
2023-05-25T09:28:26.440Z,27.90
2023-05-25T09:30:55.594Z,27.30
2023-05-25T09:33:23.663Z,27.80
2023-05-25T09:35:52.557Z,28.50
2023-05-25T09:38:20.746Z,28.90
2023-05-25T09:40:50.046Z,28.60
2023-05-25T09:43:32.529Z,29.20
2023-05-25T09:46:06.024Z,29.90
2023-05-25T09:48:34.343Z,30.50
2023-05-25T09:51:02.467Z,30.70
2023-05-25T09:53:30.617Z,30.30
2023-05-25T09:56:01.925Z,30.00
2023-05-25T09:58:31.985Z,29.50
2023-05-25T10:00:59.887Z,29.60
2023-05-25T10:03:27.765Z,29.80
2023-05-25T10:05:56.302Z,30.30
2023-05-25T10:08:27.890Z,30.00
2023-05-25T10:10:56.856Z,30.70
2023-05-25T10:13:30.081Z,30.50
2023-05-25T10:15:59.286Z,30.50
2023-05-25T10:18:30.080Z,30.50
2023-05-25T10:21:03.949Z,31.40
2023-05-25T10:23:38.246Z,31.70
2023-05-25T10:26:08.279Z,31.80
2023-05-25T10:28:40.905Z,31.60
2023-05-25T10:31:10.637Z,31.50
2023-05-25T10:33:38.902Z,31.90
2023-05-25T10:36:11.329Z,32.60
2023-05-25T10:38:41.809Z,33.40
2023-05-25T10:41:11.449Z,33.70
2023-05-25T10:43:41.421Z,34.10
2023-05-25T10:46:09.681Z,34.70
2023-05-25T10:48:38.410Z,34.70
2023-05-25T10:51:08.347Z,34.30
2023-05-25T10:53:37.082Z,35.10
2023-05-25T10:56:06.780Z,35.70
2023-05-25T10:58:35.041Z,35.80
2023-05-25T11:01:08.922Z,35.80
2023-05-25T11:03:54.591Z,35.70
2023-05-25T11:06:22.951Z,36.40
2023-05-25T11:08:53.066Z,35.90
2023-05-25T11:11:21.029Z,36.80
2023-05-25T11:13:50.450Z,36.20
2023-05-25T11:16:24.790Z,35.20
2023-05-25T11:18:54.754Z,35.50
2023-05-25T11:21:25.164Z,36.00
2023-05-25T11:24:02.676Z,36.20
2023-05-25T11:26:32.016Z,37.00
2023-05-25T11:29:01.947Z,37.20
2023-05-25T11:31:37.534Z,37.00
2023-05-25T11:34:07.397Z,37.70
2023-05-25T11:36:36.976Z,36.50
2023-05-25T11:39:11.580Z,35.80
2023-05-25T11:41:50.007Z,36.00
2023-05-25T11:44:28.161Z,35.80
2023-05-25T11:46:58.235Z,37.30
2023-05-25T11:49:26.354Z,36.40
2023-05-25T11:51:54.733Z,36.60
2023-05-25T11:54:24.012Z,37.30
2023-05-25T11:56:51.879Z,37.00
2023-05-25T11:59:19.933Z,35.90
2023-05-25T12:01:58.354Z,35.60
2023-05-25T12:04:26.400Z,35.70
2023-05-25T12:06:59.745Z,35.80
2023-05-25T12:09:27.481Z,35.20
2023-05-25T12:11:55.524Z,36.20
2023-05-25T12:14:23.924Z,36.30
2023-05-25T12:16:52.274Z,36.30
2023-05-25T12:19:22.778Z,36.40
2023-05-25T12:21:51.555Z,36.50
2023-05-25T12:24:20.283Z,36.40
2023-05-25T12:26:49.043Z,37.00
2023-05-25T12:29:17.001Z,36.00
2023-05-25T12:31:45.029Z,35.70
2023-05-25T12:34:14.590Z,35.50
2023-05-25T12:36:46.369Z,35.90
2023-05-25T12:39:15.749Z,36.00
2023-05-25T12:41:45.510Z,36.30
2023-05-25T12:44:25.288Z,36.70
2023-05-25T12:46:55.388Z,37.30
2023-05-25T12:49:28.105Z,37.30
2023-05-25T12:51:58.024Z,37.60
2023-05-25T12:54:36.486Z,38.40
2023-05-25T12:57:05.690Z,38.50
2023-05-25T12:59:34.389Z,38.70
2023-05-25T13:02:03.124Z,38.30
2023-05-25T13:04:31.062Z,37.60
2023-05-25T13:07:00.313Z,37.40
2023-05-25T13:09:28.505Z,37.60
2023-05-25T13:11:57.479Z,38.10
2023-05-25T13:14:26.446Z,37.90
2023-05-25T13:16:56.575Z,37.70
2023-05-25T13:19:26.794Z,37.50
2023-05-25T13:21:55.956Z,37.40
2023-05-25T13:24:25.177Z,37.10
2023-05-25T13:26:52.927Z,37.10
2023-05-25T13:29:20.727Z,37.20
2023-05-25T13:31:48.662Z,37.60
2023-05-25T13:34:16.589Z,37.00
2023-05-25T13:36:44.372Z,37.00
2023-05-25T13:39:13.553Z,37.60
2023-05-25T13:41:43.754Z,36.50
2023-05-25T13:44:14.067Z,36.60
2023-05-25T13:46:42.975Z,36.40
2023-05-25T13:49:11.788Z,36.40
2023-05-25T13:51:39.560Z,36.90
2023-05-25T13:54:07.412Z,36.70
2023-05-25T13:56:35.169Z,36.40
2023-05-25T13:59:04.268Z,36.80
2023-05-25T14:01:33.008Z,36.90
2023-05-25T14:04:01.071Z,36.10
2023-05-25T14:06:28.972Z,36.00
2023-05-25T14:08:56.744Z,36.60
2023-05-25T14:11:28.495Z,36.00
2023-05-25T14:13:56.685Z,36.70
2023-05-25T14:16:26.087Z,37.10
2023-05-25T14:18:53.938Z,37.40
2023-05-25T14:21:21.703Z,36.10
2023-05-25T14:23:49.580Z,37.30
2023-05-25T14:26:17.490Z,37.70
2023-05-25T14:28:45.318Z,36.60
2023-05-25T14:31:13.084Z,37.10
2023-05-25T14:33:43.065Z,37.60
2023-05-25T14:36:11.352Z,37.60
2023-05-25T14:38:39.232Z,38.00
2023-05-25T14:41:07.081Z,37.60
2023-05-25T14:43:34.903Z,37.70
2023-05-25T14:46:02.700Z,37.70
2023-05-25T14:48:30.567Z,38.30
2023-05-25T14:51:00.456Z,38.50
2023-05-25T14:53:28.203Z,38.90
2023-05-25T14:55:56.037Z,38.60
2023-05-25T14:58:23.878Z,38.70
2023-05-25T15:00:51.641Z,38.70
2023-05-25T15:03:19.675Z,38.30
2023-05-25T15:05:47.684Z,38.80
2023-05-25T15:08:16.791Z,39.20
2023-05-25T15:10:44.714Z,39.60
2023-05-25T15:13:13.369Z,39.80
2023-05-25T15:15:41.672Z,38.90
2023-05-25T15:18:09.708Z,39.50
2023-05-25T15:20:37.572Z,39.50
2023-05-25T15:23:05.391Z,38.90
2023-05-25T15:25:35.801Z,39.20
2023-05-25T15:28:04.438Z,39.30
2023-05-25T15:30:34.005Z,39.10
2023-05-25T15:33:01.994Z,38.60
2023-05-25T15:35:32.218Z,39.50
2023-05-25T15:38:00.357Z,39.10
2023-05-25T15:40:28.322Z,39.40
2023-05-25T15:42:57.535Z,39.70
2023-05-25T15:45:26.164Z,39.80
2023-05-25T15:47:54.008Z,40.50
2023-05-25T15:50:21.835Z,40.00
2023-05-25T15:52:49.943Z,40.30
2023-05-25T15:55:17.872Z,40.00
2023-05-25T15:57:45.795Z,40.20
2023-05-25T16:00:17.401Z,40.10
2023-05-25T16:02:45.335Z,39.70
2023-05-25T16:05:13.260Z,39.90
2023-05-25T16:07:41.073Z,40.50
2023-05-25T16:10:10.093Z,40.80
2023-05-25T16:12:37.846Z,39.90
2023-05-25T16:15:06.345Z,40.30
2023-05-25T16:17:35.543Z,40.60
2023-05-25T16:20:03.411Z,40.50
2023-05-25T16:22:31.311Z,40.20
2023-05-25T16:24:59.280Z,40.00
2023-05-25T16:27:27.198Z,40.00
2023-05-25T16:29:55.087Z,40.50
2023-05-25T16:32:22.935Z,40.40
2023-05-25T16:34:52.117Z,41.10
2023-05-25T16:37:19.893Z,41.50
2023-05-25T16:39:47.737Z,41.40
2023-05-25T16:42:15.790Z,41.20
2023-05-25T16:44:43.590Z,41.30
2023-05-25T16:47:11.467Z,41.70
2023-05-25T16:49:39.346Z,41.60
2023-05-25T16:52:09.662Z,41.80
2023-05-25T16:54:37.487Z,41.70
2023-05-25T16:57:06.838Z,41.80
2023-05-25T16:59:34.608Z,41.60
2023-05-25T17:02:02.510Z,41.80
2023-05-25T17:04:30.427Z,41.90
2023-05-25T17:06:58.368Z,41.80
2023-05-25T17:09:27.690Z,41.90
2023-05-25T17:11:59.322Z,42.00
2023-05-25T17:14:27.272Z,42.10
2023-05-25T17:16:55.093Z,41.40
2023-05-25T17:19:23.089Z,41.70
2023-05-25T17:21:50.980Z,41.80
2023-05-25T17:24:18.866Z,41.40
2023-05-25T17:26:50.048Z,42.00
2023-05-25T17:29:17.952Z,41.70
2023-05-25T17:31:48.506Z,42.00
2023-05-25T17:34:17.006Z,42.80
2023-05-25T17:36:44.974Z,42.60
2023-05-25T17:39:12.823Z,42.40
2023-05-25T17:41:41.432Z,42.60
2023-05-25T17:44:10.748Z,43.20
2023-05-25T17:46:38.651Z,44.10
2023-05-25T17:49:06.451Z,45.00
2023-05-25T17:51:34.290Z,45.70
2023-05-25T17:54:02.170Z,45.90
2023-05-25T17:56:30.070Z,46.10
2023-05-25T17:58:57.867Z,46.30
2023-05-25T18:01:27.159Z,46.90
2023-05-25T18:03:55.303Z,47.90
2023-05-25T18:06:23.164Z,48.40
2023-05-25T18:08:50.930Z,48.60
2023-05-25T18:11:19.093Z,49.00
2023-05-25T18:13:46.842Z,49.50
2023-05-25T18:16:14.670Z,49.60
2023-05-25T18:18:44.001Z,50.00
2023-05-25T18:21:11.803Z,50.30
2023-05-25T18:23:39.570Z,50.50
2023-05-25T18:26:07.764Z,51.10
2023-05-25T18:28:35.538Z,51.40
2023-05-25T18:31:03.414Z,51.20
2023-05-25T18:33:31.375Z,51.40
2023-05-25T18:36:00.562Z,51.40
2023-05-25T18:38:28.420Z,51.10
2023-05-25T18:40:56.280Z,51.40
2023-05-25T18:43:24.296Z,51.60
2023-05-25T18:45:52.081Z,51.80
2023-05-25T18:48:20.238Z,52.20
2023-05-25T18:50:48.005Z,52.20
2023-05-25T18:53:17.222Z,52.50
2023-05-25T18:55:45.311Z,52.70
2023-05-25T18:58:13.255Z,53.20
2023-05-25T19:00:41.196Z,53.60
2023-05-25T19:03:10.593Z,54.00
2023-05-25T19:05:38.669Z,54.20
2023-05-25T19:08:06.569Z,54.50
2023-05-25T19:10:35.731Z,54.80
2023-05-25T19:13:03.536Z,54.40
2023-05-25T19:15:31.300Z,55.00
2023-05-25T19:17:59.180Z,55.00
2023-05-25T19:20:28.093Z,55.20
2023-05-25T19:22:56.132Z,55.30
2023-05-25T19:25:23.969Z,55.40
2023-05-25T19:27:53.148Z,55.40
2023-05-25T19:30:21.143Z,55.80
2023-05-25T19:32:48.892Z,55.90
2023-05-25T19:35:16.942Z,56.30
2023-05-25T19:37:44.744Z,56.30
2023-05-25T19:40:13.296Z,56.70
2023-05-25T19:42:41.668Z,56.80
2023-05-25T19:45:11.424Z,56.80
2023-05-25T19:47:39.329Z,57.20
2023-05-25T19:50:08.501Z,57.40
2023-05-25T19:52:36.382Z,57.60
2023-05-25T19:55:04.341Z,57.30
2023-05-25T19:57:32.079Z,57.70
2023-05-25T20:00:00.024Z,58.10
2023-05-25T20:02:29.258Z,58.30
2023-05-25T20:04:57.142Z,58.70
2023-05-25T20:07:24.986Z,58.80
2023-05-25T20:09:52.963Z,59.40
2023-05-25T20:12:21.719Z,59.60
2023-05-25T20:14:49.623Z,59.20
2023-05-25T20:17:17.565Z,59.70
2023-05-25T20:19:46.682Z,59.90
2023-05-25T20:22:14.496Z,60.50
2023-05-25T20:24:42.335Z,60.60
2023-05-25T20:27:10.129Z,61.00
2023-05-25T20:29:38.217Z,61.60
2023-05-25T20:32:06.995Z,62.10
2023-05-25T20:34:35.182Z,61.90
2023-05-25T20:37:04.325Z,62.50
2023-05-25T20:39:32.159Z,62.60
2023-05-25T20:42:01.548Z,63.10
2023-05-25T20:44:31.785Z,63.20
2023-05-25T20:46:59.788Z,64.00
2023-05-25T20:49:27.648Z,64.10
2023-05-25T20:51:55.416Z,64.40
2023-05-25T20:54:24.648Z,64.50
2023-05-25T20:56:52.564Z,64.40
2023-05-25T20:59:20.388Z,64.60
2023-05-25T21:01:48.350Z,63.50
2023-05-25T21:04:16.451Z,64.40
2023-05-25T21:06:44.320Z,64.50
2023-05-25T21:09:12.197Z,64.80
2023-05-25T21:11:41.346Z,64.40
2023-05-25T21:14:09.305Z,64.30
2023-05-25T21:16:37.260Z,65.30
2023-05-25T21:19:05.213Z,64.70
2023-05-25T21:21:33.929Z,65.00
2023-05-25T21:24:02.324Z,65.00
2023-05-25T21:26:30.929Z,64.90
2023-05-25T21:29:00.276Z,65.60
2023-05-25T21:31:28.149Z,65.80
2023-05-25T21:33:56.231Z,65.80
2023-05-25T21:36:24.031Z,65.90
2023-05-25T21:38:51.841Z,66.60
2023-05-25T21:41:20.180Z,67.00
2023-05-25T21:43:47.945Z,67.50
2023-05-25T21:46:17.190Z,67.40
2023-05-25T21:48:45.320Z,68.20
2023-05-25T21:51:13.094Z,68.30
2023-05-25T21:53:40.944Z,68.40
2023-05-25T21:56:08.889Z,69.10
2023-05-25T21:58:36.772Z,69.50
2023-05-25T22:01:04.698Z,70.20
2023-05-25T22:03:34.066Z,70.60
2023-05-25T22:06:02.147Z,71.50
2023-05-25T22:08:29.956Z,70.70
2023-05-25T22:10:58.200Z,70.80
2023-05-25T22:13:26.010Z,71.30
2023-05-25T22:15:53.811Z,71.60
2023-05-25T22:18:21.673Z,72.00
2023-05-25T22:20:51.072Z,71.90
2023-05-25T22:23:18.916Z,71.80
2023-05-25T22:25:47.123Z,71.70
2023-05-25T22:28:15.148Z,71.70
2023-05-25T22:30:43.132Z,72.30
2023-05-25T22:33:11.328Z,72.20
2023-05-25T22:35:39.255Z,72.60
2023-05-25T22:38:08.430Z,72.80
2023-05-25T22:40:36.233Z,72.90
2023-05-25T22:43:04.014Z,73.20
2023-05-25T22:45:31.918Z,73.30
2023-05-25T22:47:59.837Z,73.60
2023-05-25T22:50:28.052Z,73.20
2023-05-25T22:52:55.831Z,73.10
2023-05-25T22:55:25.094Z,73.00
2023-05-25T22:57:52.911Z,73.60
2023-05-25T23:00:20.761Z,73.30
2023-05-25T23:02:48.632Z,73.90
2023-05-25T23:05:16.778Z,73.30
2023-05-25T23:07:44.856Z,73.90
2023-05-25T23:10:12.734Z,73.70
2023-05-25T23:12:41.881Z,74.50
2023-05-25T23:15:11.012Z,74.80
2023-05-25T23:17:38.819Z,74.90
2023-05-25T23:20:07.774Z,74.10
2023-05-25T23:22:35.700Z,74.70
2023-05-25T23:25:03.460Z,75.30
2023-05-25T23:27:32.858Z,75.40
2023-05-25T23:30:02.821Z,75.10
2023-05-25T23:32:30.626Z,75.90
2023-05-25T23:34:58.407Z,75.80
2023-05-25T23:37:28.218Z,76.20
2023-05-25T23:39:56.100Z,75.80
2023-05-25T23:42:23.908Z,76.40
2023-05-25T23:44:51.691Z,76.30
2023-05-25T23:47:21.048Z,76.50
2023-05-25T23:49:48.855Z,77.40
2023-05-25T23:52:16.700Z,77.70
2023-05-25T23:54:44.442Z,78.80
2023-05-25T23:57:12.230Z,79.50
2023-05-25T23:59:39.998Z,79.90
